Main page
METAR-TAF:

METAR-TAF

Airports :

San Angelo Regional Airport

San Angelo, Texas, United States

latitude: 31-21-05N, longitude: 100-29-38W, elevation: 1916 ft

Current weather observation

The report was made 15 minutes ago, at 18:51 UTC
Wind 7 mph from the South
Temperature 55°F
Humidity 47%
Pressure 30.30 in. Hg
Visibility: 10 miles
Overcast at a height of 4700 ft

METAR: KSJT 211851Z 17006KT 10SM OVC047 13/02 A3030 RMK AO2 SLP262 T01280022

Time: 13:06 (19:06 UTC)

Forecast

The report was made 1 hour and 19 minutes ago, at 17:47 UTC
Forecast valid from 21 at 18 UTC to 22 at 18 UTC
Wind 9 mph from the Southeast
Visibility: 6 miles
Broken clouds at a height of 5000 ft
From 22 at 1100 UTC
Wind 6 mph from the Southwest
Visibility: 6 miles
Broken clouds at a height of 25000 ft

TAF: KSJT 211747Z 2118/2218 14008KT P6SM BKN050 FM221100 22005KT P6SM BKN250

Weather observations and forecasts of more than 4000 airports (METAR and TAF reports).

The available stations are represented by yellow and red dots on the map.

Hover mouse over dot to see the name of the station.

Then click to see weather observations and forecasts.

To change the map : click on the green buttons with a black cross to zoom in, on the green button with a dash to zoom out, or on the green arrows for adjacent maps.


METAR-TAF: